Seneimaru — JG5357 — position and weather

sailwx.info

Track history (hours):
 
Tides and Currents Weather Stations Pressure Air Temp Water Temp Dewpoint Dewpoint Depression Visibility Wind Speed Wind Dir Waves Ship Positions

Seneimaru

Last reported at 2015-Aug-04 15:33 UTC. Time now 2015-Aug-04 15:50 UTC.
Position N 35°30' E 139°43'.

Length 72 m; draft 5.9 m.

Type: Cargo ship. MMSI: 431100477.

Date/timePositionNaut miles runAvg speedWind from/ knotsBaromVisibWave heightAir tempDewpointWater temp
2015-Aug-04 15:33N 35°30' E 139°43'0 0.0
2015-Aug-04 14:33N 35°30' E 139°43'0 0.0
2015-Aug-04 13:33N 35°30' E 139°43'0 0.0
2015-Aug-04 12:33N 35°30' E 139°43'0 0.0
2015-Aug-04 11:33N 35°30' E 139°43'0 0.0
2015-Aug-04 10:33N 35°30' E 139°43'0 0.0
2015-Aug-04 09:33N 35°30' E 139°43'0 0.0
2015-Aug-04 08:33N 35°30' E 139°43'0 0.0
2015-Aug-04 07:33N 35°30' E 139°43'0 0.0
2015-Aug-04 06:33N 35°30' E 139°43'0 0.0
2015-Aug-04 05:33N 35°30' E 139°43'0 0.0
2015-Aug-04 04:33N 35°30' E 139°43'5 5.0
2015-Aug-04 03:33N 35°25' E 139°45'2 2.2
2015-Aug-04 02:33N 35°23' E 139°44'0 0.1
2015-Aug-04 01:33N 35°23' E 139°45'0 0.0
2015-Aug-04 00:33N 35°23' E 139°45'0 0.0
2015-Aug-03 23:33N 35°23' E 139°45'0 0.0
2015-Aug-03 22:33N 35°23' E 139°45'0 0.1
2015-Aug-03 21:33N 35°23' E 139°45'0 0.0
2015-Aug-03 20:33N 35°23' E 139°45'0 0.0
2015-Aug-03 19:33N 35°23' E 139°45'0 0.0
2015-Aug-03 18:33N 35°23' E 139°45'0 0.0
2015-Aug-03 17:33N 35°23' E 139°45'0 0.0
2015-Aug-03 16:33N 35°23' E 139°45'0 0.0
2015-Aug-03 15:33N 35°23' E 139°45'0 0.0
2015-Aug-03 14:33N 35°23' E 139°45'0 0.0
2015-Aug-03 13:33N 35°23' E 139°45'0 0.0
2015-Aug-03 12:33N 35°23' E 139°45'1 1.0
2015-Aug-03 11:33N 35°22' E 139°44'1110.8
2015-Aug-03 10:33N 35°11' E 139°47'1312.7
2015-Aug-03 09:33N 34°59' E 139°44'8 0.3
2015-Aug-02 02:29N 34°51' E 139°47'1111.6
2015-Aug-02 01:33N 35°02' E 139°44'1211.6
2015-Aug-02 00:33N 35°13' E 139°46'1111.3
2015-Aug-01 23:33N 35°24' E 139°43'5 5.5
2015-Aug-01 22:33N 35°30' E 139°43'1 0.7
2015-Aug-01 21:33N 35°30' E 139°43'0 0.0
2015-Aug-01 20:33N 35°30' E 139°43'0 0.0
2015-Aug-01 19:33N 35°30' E 139°43'0 0.0
2015-Aug-01 18:33N 35°30' E 139°43'0 0.0
2015-Aug-01 17:33N 35°30' E 139°43'0 0.0
2015-Aug-01 16:33N 35°30' E 139°43'0 0.0
2015-Aug-01 15:33N 35°30' E 139°43'0 0.0
2015-Aug-01 14:33N 35°30' E 139°43'0 0.0
2015-Aug-01 13:33N 35°30' E 139°43'0 0.0
2015-Aug-01 12:33N 35°30' E 139°43'0 0.0
2015-Aug-01 11:33N 35°30' E 139°43'0 0.0
2015-Aug-01 10:33N 35°30' E 139°43'0 0.0
2015-Aug-01 09:33N 35°30' E 139°43'0 0.0
2015-Aug-01 08:33N 35°30' E 139°43'0 0.0
2015-Aug-01 07:33N 35°30' E 139°43'0 0.0
2015-Aug-01 06:33N 35°30' E 139°43'0 0.0
2015-Aug-01 05:33N 35°30' E 139°43'0 0.0
2015-Aug-01 04:33N 35°30' E 139°43'0 0.0
2015-Aug-01 03:33N 35°30' E 139°43'0 0.0
2015-Aug-01 02:33N 35°30' E 139°43'0 0.0
2015-Aug-01 01:33N 35°30' E 139°43'0 0.0
2015-Aug-01 00:33N 35°30' E 139°43'0 0.0
2015-Jul-31 23:33N 35°30' E 139°43'0 0.0
2015-Jul-31 22:33N 35°30' E 139°43'0 0.0
2015-Jul-31 21:33N 35°30' E 139°43'1 0.9
2015-Jul-31 20:33N 35°29' E 139°43'6 5.9
2015-Jul-31 19:33N 35°23' E 139°44'0 0.0
2015-Jul-31 18:31N 35°23' E 139°44'0 0.2
2015-Jul-31 17:33N 35°24' E 139°44'1010.4
2015-Jul-31 16:33N 35°13' E 139°47'1212.1
2015-Jul-31 15:33N 35°02' E 139°44'1110.5
2015-Jul-31 14:33N 34°51' E 139°47'20 0.7
2015-Jul-30 10:17N 34°33' E 139°58'2713.0
2015-Jul-30 08:12N 34°57' E 139°44'711.0
2015-Jul-30 07:33N 35°04' E 139°44'1110.9
2015-Jul-30 06:33N 35°15' E 139°46'10 9.9
2015-Jul-30 05:34N 35°25' E 139°43'5 4.9
2015-Jul-30 04:33N 35°30' E 139°43'1 0.6
2015-Jul-30 03:34N 35°30' E 139°43'0 0.0
2015-Jul-30 02:33N 35°30' E 139°43'0 0.0
2015-Jul-30 01:33N 35°30' E 139°43'0 0.0
2015-Jul-30 00:33N 35°30' E 139°43'0 0.0
2015-Jul-29 23:33N 35°30' E 139°43'0 0.0
2015-Jul-29 22:33N 35°30' E 139°43'0 0.0
2015-Jul-29 21:33N 35°30' E 139°43'0 0.0
2015-Jul-29 20:33N 35°30' E 139°43'0 0.0
2015-Jul-29 19:33N 35°30' E 139°43'0 0.0
2015-Jul-29 18:34N 35°30' E 139°43'0 0.0
2015-Jul-29 17:33N 35°30' E 139°43'0 0.0
2015-Jul-29 16:34N 35°30' E 139°43'0 0.0
2015-Jul-29 15:33N 35°30' E 139°43'0 0.0
2015-Jul-29 14:33N 35°30' E 139°43'0 0.0
2015-Jul-29 13:33N 35°30' E 139°43'0 0.0
2015-Jul-29 12:33N 35°30' E 139°43'0 0.0
2015-Jul-29 11:33N 35°30' E 139°43'0 0.0
2015-Jul-29 10:33N 35°30' E 139°43'0 0.0
2015-Jul-29 09:33N 35°30' E 139°43'0 0.0
2015-Jul-29 08:33N 35°30' E 139°43'0 0.0
2015-Jul-29 07:33N 35°30' E 139°43'0 0.0
2015-Jul-29 06:34N 35°30' E 139°43'0 0.0
2015-Jul-29 05:33N 35°30' E 139°43'0 0.0
2015-Jul-29 04:33N 35°30' E 139°43'1 1.2
2015-Jul-29 03:33N 35°29' E 139°42'6 5.5
2015-Jul-29 02:33N 35°24' E 139°44'0 0.0
2015-Jul-29 01:31N 35°24' E 139°44'0 0.0
2015-Jul-29 00:31N 35°24' E 139°44'0 0.0
2015-Jul-28 23:31N 35°24' E 139°44'0 0.2
2015-Jul-28 22:34N 35°23' E 139°44'10 9.8
2015-Jul-28 21:33N 35°14' E 139°47'1111.2
2015-Jul-28 20:34N 35°03' E 139°44'1110.2
2015-Jul-28 19:32N 34°53' E 139°46'1510.4
2015-Jul-28 18:04N 34°39' E 139°54'22 0.7
2015-Jul-27 11:32N 34°59' E 139°43'1010.6
2015-Jul-27 10:33N 35°09' E 139°45'1110.7
2015-Jul-27 09:33N 35°19' E 139°43'1010.1
2015-Jul-27 08:34N 35°29' E 139°47'4 4.0
2015-Jul-27 07:34N 35°30' E 139°43'0 0.0
2015-Jul-27 06:34N 35°30' E 139°43'0 0.0
2015-Jul-27 05:34N 35°30' E 139°43'0 0.0
2015-Jul-27 04:33N 35°30' E 139°43'0 0.0
2015-Jul-27 03:34N 35°30' E 139°43'0 0.0
2015-Jul-27 02:34N 35°30' E 139°43'0 0.0
2015-Jul-27 01:34N 35°30' E 139°43'0 0.0
2015-Jul-27 00:33N 35°30' E 139°43'0 0.0
2015-Jul-26 23:34N 35°30' E 139°43'0 0.0
2015-Jul-26 22:34N 35°30' E 139°43'0 0.0
2015-Jul-26 21:33N 35°30' E 139°43'0 0.0
2015-Jul-26 20:34N 35°30' E 139°43'0 0.0
2015-Jul-26 19:34N 35°30' E 139°43'0 0.0
2015-Jul-26 18:34N 35°30' E 139°43'0 0.0
2015-Jul-26 17:33N 35°30' E 139°43'0 0.0
2015-Jul-26 16:34N 35°30' E 139°43'0 0.0
2015-Jul-26 15:34N 35°30' E 139°43'0 0.0
2015-Jul-26 14:34N 35°30' E 139°43'0 0.0
2015-Jul-26 13:34N 35°30' E 139°43'0 0.0
2015-Jul-26 12:34N 35°30' E 139°43'0 0.0
2015-Jul-26 11:33N 35°30' E 139°43'0 0.0
2015-Jul-26 10:34N 35°30' E 139°43'0 0.0
2015-Jul-26 09:33N 35°30' E 139°43'0 0.0
2015-Jul-26 08:33N 35°30' E 139°43'0 0.0
2015-Jul-26 07:34N 35°30' E 139°43'0 0.0
2015-Jul-26 06:33N 35°30' E 139°43'0 0.0
2015-Jul-26 05:33N 35°30' E 139°43'0 0.0
2015-Jul-26 04:34N 35°30' E 139°43'0 0.0
2015-Jul-26 03:33N 35°30' E 139°43'0 0.0
2015-Jul-26 02:34N 35°30' E 139°43'0 0.0
2015-Jul-26 01:33N 35°30' E 139°43'0 0.0
2015-Jul-26 00:34N 35°30' E 139°43'0 0.0
2015-Jul-25 23:33N 35°30' E 139°43'0 0.0
2015-Jul-25 22:34N 35°30' E 139°43'0 0.0
2015-Jul-25 21:34N 35°30' E 139°43'1 1.4
2015-Jul-25 20:34N 35°29' E 139°42'6 5.7
2015-Jul-25 19:31N 35°23' E 139°44'0 0.0
2015-Jul-25 18:31N 35°23' E 139°44'0 0.0
2015-Jul-25 17:31N 35°23' E 139°44'0 0.0
2015-Jul-25 16:31N 35°23' E 139°44'6 6.8
2015-Jul-25 15:34N 35°17' E 139°46'  
Track history (hours):
 
Tides and Currents Weather Stations Pressure Air Temp Water Temp Dewpoint Dewpoint Depression Visibility Wind Speed Wind Dir Waves Ship Positions

Seneimaru

Last reported at 2015-Aug-04 15:33 UTC. Time now 2015-Aug-04 15:50 UTC.
Position N 35°30' E 139°43'.

Length 72 m; draft 5.9 m.

Type: Cargo ship. MMSI: 431100477.

Date/timePositionNaut miles runAvg speedWind from/ knotsBaromVisibWave heightAir tempDewpointWater temp
2015-Aug-04 15:33N 35°30' E 139°43'0 0.0
2015-Aug-04 14:33N 35°30' E 139°43'0 0.0
2015-Aug-04 13:33N 35°30' E 139°43'0 0.0
2015-Aug-04 12:33N 35°30' E 139°43'0 0.0
2015-Aug-04 11:33N 35°30' E 139°43'0 0.0
2015-Aug-04 10:33N 35°30' E 139°43'0 0.0
2015-Aug-04 09:33N 35°30' E 139°43'0 0.0
2015-Aug-04 08:33N 35°30' E 139°43'0 0.0
2015-Aug-04 07:33N 35°30' E 139°43'0 0.0
2015-Aug-04 06:33N 35°30' E 139°43'0 0.0
2015-Aug-04 05:33N 35°30' E 139°43'0 0.0
2015-Aug-04 04:33N 35°30' E 139°43'5 5.0
2015-Aug-04 03:33N 35°25' E 139°45'2 2.2
2015-Aug-04 02:33N 35°23' E 139°44'0 0.1
2015-Aug-04 01:33N 35°23' E 139°45'0 0.0
2015-Aug-04 00:33N 35°23' E 139°45'0 0.0
2015-Aug-03 23:33N 35°23' E 139°45'0 0.0
2015-Aug-03 22:33N 35°23' E 139°45'0 0.1
2015-Aug-03 21:33N 35°23' E 139°45'0 0.0
2015-Aug-03 20:33N 35°23' E 139°45'0 0.0
2015-Aug-03 19:33N 35°23' E 139°45'0 0.0
2015-Aug-03 18:33N 35°23' E 139°45'0 0.0
2015-Aug-03 17:33N 35°23' E 139°45'0 0.0
2015-Aug-03 16:33N 35°23' E 139°45'0 0.0
2015-Aug-03 15:33N 35°23' E 139°45'0 0.0
2015-Aug-03 14:33N 35°23' E 139°45'0 0.0
2015-Aug-03 13:33N 35°23' E 139°45'0 0.0
2015-Aug-03 12:33N 35°23' E 139°45'1 1.0
2015-Aug-03 11:33N 35°22' E 139°44'1110.8
2015-Aug-03 10:33N 35°11' E 139°47'1312.7
2015-Aug-03 09:33N 34°59' E 139°44'8 0.3
2015-Aug-02 02:29N 34°51' E 139°47'1111.6
2015-Aug-02 01:33N 35°02' E 139°44'1211.6
2015-Aug-02 00:33N 35°13' E 139°46'1111.3
2015-Aug-01 23:33N 35°24' E 139°43'5 5.5
2015-Aug-01 22:33N 35°30' E 139°43'1 0.7
2015-Aug-01 21:33N 35°30' E 139°43'0 0.0
2015-Aug-01 20:33N 35°30' E 139°43'0 0.0
2015-Aug-01 19:33N 35°30' E 139°43'0 0.0
2015-Aug-01 18:33N 35°30' E 139°43'0 0.0
2015-Aug-01 17:33N 35°30' E 139°43'0 0.0
2015-Aug-01 16:33N 35°30' E 139°43'0 0.0
2015-Aug-01 15:33N 35°30' E 139°43'0 0.0
2015-Aug-01 14:33N 35°30' E 139°43'0 0.0
2015-Aug-01 13:33N 35°30' E 139°43'0 0.0
2015-Aug-01 12:33N 35°30' E 139°43'0 0.0
2015-Aug-01 11:33N 35°30' E 139°43'0 0.0
2015-Aug-01 10:33N 35°30' E 139°43'0 0.0
2015-Aug-01 09:33N 35°30' E 139°43'0 0.0
2015-Aug-01 08:33N 35°30' E 139°43'0 0.0
2015-Aug-01 07:33N 35°30' E 139°43'0 0.0
2015-Aug-01 06:33N 35°30' E 139°43'0 0.0
2015-Aug-01 05:33N 35°30' E 139°43'0 0.0
2015-Aug-01 04:33N 35°30' E 139°43'0 0.0
2015-Aug-01 03:33N 35°30' E 139°43'0 0.0
2015-Aug-01 02:33N 35°30' E 139°43'0 0.0
2015-Aug-01 01:33N 35°30' E 139°43'0 0.0
2015-Aug-01 00:33N 35°30' E 139°43'0 0.0
2015-Jul-31 23:33N 35°30' E 139°43'0 0.0
2015-Jul-31 22:33N 35°30' E 139°43'0 0.0
2015-Jul-31 21:33N 35°30' E 139°43'1 0.9
2015-Jul-31 20:33N 35°29' E 139°43'6 5.9
2015-Jul-31 19:33N 35°23' E 139°44'0 0.0
2015-Jul-31 18:31N 35°23' E 139°44'0 0.2
2015-Jul-31 17:33N 35°24' E 139°44'1010.4
2015-Jul-31 16:33N 35°13' E 139°47'1212.1
2015-Jul-31 15:33N 35°02' E 139°44'1110.5
2015-Jul-31 14:33N 34°51' E 139°47'20 0.7
2015-Jul-30 10:17N 34°33' E 139°58'2713.0
2015-Jul-30 08:12N 34°57' E 139°44'711.0
2015-Jul-30 07:33N 35°04' E 139°44'1110.9
2015-Jul-30 06:33N 35°15' E 139°46'10 9.9
2015-Jul-30 05:34N 35°25' E 139°43'5 4.9
2015-Jul-30 04:33N 35°30' E 139°43'1 0.6
2015-Jul-30 03:34N 35°30' E 139°43'0 0.0
2015-Jul-30 02:33N 35°30' E 139°43'0 0.0
2015-Jul-30 01:33N 35°30' E 139°43'0 0.0
2015-Jul-30 00:33N 35°30' E 139°43'0 0.0
2015-Jul-29 23:33N 35°30' E 139°43'0 0.0
2015-Jul-29 22:33N 35°30' E 139°43'0 0.0
2015-Jul-29 21:33N 35°30' E 139°43'0 0.0
2015-Jul-29 20:33N 35°30' E 139°43'0 0.0
2015-Jul-29 19:33N 35°30' E 139°43'0 0.0
2015-Jul-29 18:34N 35°30' E 139°43'0 0.0
2015-Jul-29 17:33N 35°30' E 139°43'0 0.0
2015-Jul-29 16:34N 35°30' E 139°43'0 0.0
2015-Jul-29 15:33N 35°30' E 139°43'0 0.0
2015-Jul-29 14:33N 35°30' E 139°43'0 0.0
2015-Jul-29 13:33N 35°30' E 139°43'0 0.0
2015-Jul-29 12:33N 35°30' E 139°43'0 0.0
2015-Jul-29 11:33N 35°30' E 139°43'0 0.0
2015-Jul-29 10:33N 35°30' E 139°43'0 0.0
2015-Jul-29 09:33N 35°30' E 139°43'0 0.0
2015-Jul-29 08:33N 35°30' E 139°43'0 0.0
2015-Jul-29 07:33N 35°30' E 139°43'0 0.0
2015-Jul-29 06:34N 35°30' E 139°43'0 0.0
2015-Jul-29 05:33N 35°30' E 139°43'0 0.0
2015-Jul-29 04:33N 35°30' E 139°43'1 1.2
2015-Jul-29 03:33N 35°29' E 139°42'6 5.5
2015-Jul-29 02:33N 35°24' E 139°44'0 0.0
2015-Jul-29 01:31N 35°24' E 139°44'0 0.0
2015-Jul-29 00:31N 35°24' E 139°44'0 0.0
2015-Jul-28 23:31N 35°24' E 139°44'0 0.2
2015-Jul-28 22:34N 35°23' E 139°44'10 9.8
2015-Jul-28 21:33N 35°14' E 139°47'1111.2
2015-Jul-28 20:34N 35°03' E 139°44'1110.2
2015-Jul-28 19:32N 34°53' E 139°46'1510.4
2015-Jul-28 18:04N 34°39' E 139°54'22 0.7
2015-Jul-27 11:32N 34°59' E 139°43'1010.6
2015-Jul-27 10:33N 35°09' E 139°45'1110.7
2015-Jul-27 09:33N 35°19' E 139°43'1010.1
2015-Jul-27 08:34N 35°29' E 139°47'4 4.0
2015-Jul-27 07:34N 35°30' E 139°43'0 0.0
2015-Jul-27 06:34N 35°30' E 139°43'0 0.0
2015-Jul-27 05:34N 35°30' E 139°43'0 0.0
2015-Jul-27 04:33N 35°30' E 139°43'0 0.0
2015-Jul-27 03:34N 35°30' E 139°43'0 0.0
2015-Jul-27 02:34N 35°30' E 139°43'0 0.0
2015-Jul-27 01:34N 35°30' E 139°43'0 0.0
2015-Jul-27 00:33N 35°30' E 139°43'0 0.0
2015-Jul-26 23:34N 35°30' E 139°43'0 0.0
2015-Jul-26 22:34N 35°30' E 139°43'0 0.0
2015-Jul-26 21:33N 35°30' E 139°43'0 0.0
2015-Jul-26 20:34N 35°30' E 139°43'0 0.0
2015-Jul-26 19:34N 35°30' E 139°43'0 0.0
2015-Jul-26 18:34N 35°30' E 139°43'0 0.0
2015-Jul-26 17:33N 35°30' E 139°43'0 0.0
2015-Jul-26 16:34N 35°30' E 139°43'0 0.0
2015-Jul-26 15:34N 35°30' E 139°43'0 0.0
2015-Jul-26 14:34N 35°30' E 139°43'0 0.0
2015-Jul-26 13:34N 35°30' E 139°43'0 0.0
2015-Jul-26 12:34N 35°30' E 139°43'0 0.0
2015-Jul-26 11:33N 35°30' E 139°43'0 0.0
2015-Jul-26 10:34N 35°30' E 139°43'0 0.0
2015-Jul-26 09:33N 35°30' E 139°43'0 0.0
2015-Jul-26 08:33N 35°30' E 139°43'0 0.0
2015-Jul-26 07:34N 35°30' E 139°43'0 0.0
2015-Jul-26 06:33N 35°30' E 139°43'0 0.0
2015-Jul-26 05:33N 35°30' E 139°43'0 0.0
2015-Jul-26 04:34N 35°30' E 139°43'0 0.0
2015-Jul-26 03:33N 35°30' E 139°43'0 0.0
2015-Jul-26 02:34N 35°30' E 139°43'0 0.0
2015-Jul-26 01:33N 35°30' E 139°43'0 0.0
2015-Jul-26 00:34N 35°30' E 139°43'0 0.0
2015-Jul-25 23:33N 35°30' E 139°43'0 0.0
2015-Jul-25 22:34N 35°30' E 139°43'0 0.0
2015-Jul-25 21:34N 35°30' E 139°43'1 1.4
2015-Jul-25 20:34N 35°29' E 139°42'6 5.7
2015-Jul-25 19:31N 35°23' E 139°44'0 0.0
2015-Jul-25 18:31N 35°23' E 139°44'0 0.0
2015-Jul-25 17:31N 35°23' E 139°44'0 0.0
2015-Jul-25 16:31N 35°23' E 139°44'6 6.8
2015-Jul-25 15:34N 35°17' E 139°46'  

Dump ship's entire track history